sensor_id;sensor_type;location;lat;lon;timestamp;P1;durP1;ratioP1;P2;durP2;ratioP2
72194;SDS011;60095;50.180;9.032;2022-10-16T00:01:30;1.60;;;1.23;;
72194;SDS011;60095;50.180;9.032;2022-10-16T00:03:57;1.05;;;0.93;;
72194;SDS011;60095;50.180;9.032;2022-10-16T00:06:25;1.83;;;1.58;;
72194;SDS011;60095;50.180;9.032;2022-10-16T00:08:52;1.60;;;0.95;;
72194;SDS011;60095;50.180;9.032;2022-10-16T00:11:19;1.38;;;1.25;;
72194;SDS011;60095;50.180;9.032;2022-10-16T00:13:46;1.05;;;0.73;;
72194;SDS011;60095;50.180;9.032;2022-10-16T00:16:13;0.77;;;0.73;;
72194;SDS011;60095;50.180;9.032;2022-10-16T00:18:39;2.45;;;0.75;;
72194;SDS011;60095;50.180;9.032;2022-10-16T00:21:07;1.10;;;0.85;;
72194;SDS011;60095;50.180;9.032;2022-10-16T00:23:35;2.33;;;1.33;;
72194;SDS011;60095;50.180;9.032;2022-10-16T00:26:02;3.92;;;1.50;;
72194;SDS011;60095;50.180;9.032;2022-10-16T00:28:29;2.97;;;0.90;;
72194;SDS011;60095;50.180;9.032;2022-10-16T00:30:55;1.20;;;0.80;;
72194;SDS011;60095;50.180;9.032;2022-10-16T00:33:22;1.55;;;1.00;;
72194;SDS011;60095;50.180;9.032;2022-10-16T00:35:48;1.20;;;0.77;;
72194;SDS011;60095;50.180;9.032;2022-10-16T00:38:15;1.73;;;0.50;;
72194;SDS011;60095;50.180;9.032;2022-10-16T00:40:42;3.03;;;1.67;;
72194;SDS011;60095;50.180;9.032;2022-10-16T00:43:12;2.30;;;1.33;;
72194;SDS011;60095;50.180;9.032;2022-10-16T00:45:38;1.33;;;1.00;;
72194;SDS011;60095;50.180;9.032;2022-10-16T00:48:06;1.88;;;1.27;;
72194;SDS011;60095;50.180;9.032;2022-10-16T00:50:35;5.53;;;1.02;;
72194;SDS011;60095;50.180;9.032;2022-10-16T00:53:01;1.55;;;0.52;;
72194;SDS011;60095;50.180;9.032;2022-10-16T00:55:28;6.05;;;1.75;;
72194;SDS011;60095;50.180;9.032;2022-10-16T00:57:56;1.27;;;0.88;;
72194;SDS011;60095;50.180;9.032;2022-10-16T01:00:24;1.63;;;1.38;;
72194;SDS011;60095;50.180;9.032;2022-10-16T01:02:52;3.40;;;1.35;;
72194;SDS011;60095;50.180;9.032;2022-10-16T01:05:19;2.47;;;1.85;;
72194;SDS011;60095;50.180;9.032;2022-10-16T01:07:46;1.33;;;0.95;;
72194;SDS011;60095;50.180;9.032;2022-10-16T01:10:19;1.40;;;1.25;;
72194;SDS011;60095;50.180;9.032;2022-10-16T01:12:51;2.08;;;1.13;;
72194;SDS011;60095;50.180;9.032;2022-10-16T01:15:24;1.88;;;1.77;;
72194;SDS011;60095;50.180;9.032;2022-10-16T01:17:52;3.65;;;2.70;;
72194;SDS011;60095;50.180;9.032;2022-10-16T01:20:21;2.17;;;1.98;;
72194;SDS011;60095;50.180;9.032;2022-10-16T01:22:59;2.17;;;1.98;;
72194;SDS011;60095;50.180;9.032;2022-10-16T01:25:30;2.53;;;1.95;;
72194;SDS011;60095;50.180;9.032;2022-10-16T01:28:00;1.73;;;1.45;;
72194;SDS011;60095;50.180;9.032;2022-10-16T01:30:27;1.98;;;1.33;;
72194;SDS011;60095;50.180;9.032;2022-10-16T01:32:55;1.60;;;1.50;;
72194;SDS011;60095;50.180;9.032;2022-10-16T01:35:23;1.23;;;1.08;;
72194;SDS011;60095;50.180;9.032;2022-10-16T01:37:52;1.15;;;1.05;;
72194;SDS011;60095;50.180;9.032;2022-10-16T01:40:20;5.10;;;0.98;;
72194;SDS011;60095;50.180;9.032;2022-10-16T01:42:47;4.53;;;1.63;;
72194;SDS011;60095;50.180;9.032;2022-10-16T01:45:16;2.63;;;1.15;;
72194;SDS011;60095;50.180;9.032;2022-10-16T01:47:44;1.77;;;1.55;;
72194;SDS011;60095;50.180;9.032;2022-10-16T01:50:11;1.23;;;1.13;;
72194;SDS011;60095;50.180;9.032;2022-10-16T01:52:38;1.83;;;1.52;;
72194;SDS011;60095;50.180;9.032;2022-10-16T01:55:06;0.90;;;0.90;;
72194;SDS011;60095;50.180;9.032;2022-10-16T01:57:34;0.98;;;0.75;;
72194;SDS011;60095;50.180;9.032;2022-10-16T02:00:04;0.90;;;0.70;;
72194;SDS011;60095;50.180;9.032;2022-10-16T02:02:33;3.53;;;1.55;;
72194;SDS011;60095;50.180;9.032;2022-10-16T02:05:01;1.17;;;1.08;;
72194;SDS011;60095;50.180;9.032;2022-10-16T02:07:30;1.05;;;0.70;;
72194;SDS011;60095;50.180;9.032;2022-10-16T02:09:56;1.95;;;0.88;;
72194;SDS011;60095;50.180;9.032;2022-10-16T02:12:24;1.75;;;0.70;;
72194;SDS011;60095;50.180;9.032;2022-10-16T02:14:51;3.38;;;1.20;;
72194;SDS011;60095;50.180;9.032;2022-10-16T02:17:18;1.67;;;1.05;;
72194;SDS011;60095;50.180;9.032;2022-10-16T02:19:46;0.55;;;0.32;;
72194;SDS011;60095;50.180;9.032;2022-10-16T02:22:15;0.13;;;0.13;;
72194;SDS011;60095;50.180;9.032;2022-10-16T02:24:43;1.45;;;1.35;;
72194;SDS011;60095;50.180;9.032;2022-10-16T02:27:13;0.70;;;0.40;;
72194;SDS011;60095;50.180;9.032;2022-10-16T02:29:45;1.17;;;0.80;;
72194;SDS011;60095;50.180;9.032;2022-10-16T02:32:15;0.65;;;0.55;;
72194;SDS011;60095;50.180;9.032;2022-10-16T02:34:42;0.55;;;0.35;;
72194;SDS011;60095;50.180;9.032;2022-10-16T02:37:11;1.38;;;0.50;;
72194;SDS011;60095;50.180;9.032;2022-10-16T02:39:37;1.27;;;0.80;;
72194;SDS011;60095;50.180;9.032;2022-10-16T02:42:04;0.50;;;0.40;;
72194;SDS011;60095;50.180;9.032;2022-10-16T02:44:30;1.73;;;0.60;;
72194;SDS011;60095;50.180;9.032;2022-10-16T02:46:57;4.97;;;1.02;;
72194;SDS011;60095;50.180;9.032;2022-10-16T02:49:23;0.80;;;0.50;;
72194;SDS011;60095;50.180;9.032;2022-10-16T02:51:49;1.60;;;0.88;;
72194;SDS011;60095;50.180;9.032;2022-10-16T02:54:17;0.95;;;0.22;;
72194;SDS011;60095;50.180;9.032;2022-10-16T02:56:43;1.10;;;0.60;;
72194;SDS011;60095;50.180;9.032;2022-10-16T02:59:09;0.52;;;0.43;;
72194;SDS011;60095;50.180;9.032;2022-10-16T03:01:36;0.55;;;0.30;;
72194;SDS011;60095;50.180;9.032;2022-10-16T03:04:02;0.45;;;0.38;;
72194;SDS011;60095;50.180;9.032;2022-10-16T03:06:28;0.90;;;0.60;;
72194;SDS011;60095;50.180;9.032;2022-10-16T03:08:55;0.80;;;0.55;;
72194;SDS011;60095;50.180;9.032;2022-10-16T03:11:22;1.45;;;0.60;;
72194;SDS011;60095;50.180;9.032;2022-10-16T03:13:49;3.58;;;1.02;;
72194;SDS011;60095;50.180;9.032;2022-10-16T03:16:15;0.40;;;0.30;;
72194;SDS011;60095;50.180;9.032;2022-10-16T03:18:41;0.25;;;0.15;;
72194;SDS011;60095;50.180;9.032;2022-10-16T03:21:08;1.08;;;0.40;;
72194;SDS011;60095;50.180;9.032;2022-10-16T03:23:34;1.65;;;0.90;;
72194;SDS011;60095;50.180;9.032;2022-10-16T03:26:00;0.30;;;0.30;;
72194;SDS011;60095;50.180;9.032;2022-10-16T03:28:28;0.38;;;0.30;;
72194;SDS011;60095;50.180;9.032;2022-10-16T03:30:54;0.25;;;0.22;;
72194;SDS011;60095;50.180;9.032;2022-10-16T03:33:21;0.73;;;0.45;;
72194;SDS011;60095;50.180;9.032;2022-10-16T03:35:50;0.50;;;0.30;;
72194;SDS011;60095;50.180;9.032;2022-10-16T03:38:17;0.45;;;0.32;;
72194;SDS011;60095;50.180;9.032;2022-10-16T03:40:43;0.63;;;0.35;;
72194;SDS011;60095;50.180;9.032;2022-10-16T03:43:09;0.95;;;0.75;;
72194;SDS011;60095;50.180;9.032;2022-10-16T03:45:37;0.77;;;0.50;;
72194;SDS011;60095;50.180;9.032;2022-10-16T03:48:03;1.02;;;0.80;;
72194;SDS011;60095;50.180;9.032;2022-10-16T03:50:30;10.52;;;0.88;;
72194;SDS011;60095;50.180;9.032;2022-10-16T03:52:56;1.58;;;0.95;;
72194;SDS011;60095;50.180;9.032;2022-10-16T03:55:22;0.80;;;0.60;;
72194;SDS011;60095;50.180;9.032;2022-10-16T03:57:48;5.30;;;0.43;;
72194;SDS011;60095;50.180;9.032;2022-10-16T04:00:15;1.05;;;0.60;;
72194;SDS011;60095;50.180;9.032;2022-10-16T04:02:43;0.20;;;0.20;;
72194;SDS011;60095;50.180;9.032;2022-10-16T04:05:09;0.98;;;0.55;;
72194;SDS011;60095;50.180;9.032;2022-10-16T04:07:35;0.63;;;0.35;;
72194;SDS011;60095;50.180;9.032;2022-10-16T04:10:03;0.80;;;0.52;;
72194;SDS011;60095;50.180;9.032;2022-10-16T04:12:29;1.90;;;0.70;;
72194;SDS011;60095;50.180;9.032;2022-10-16T04:14:55;1.17;;;0.65;;
72194;SDS011;60095;50.180;9.032;2022-10-16T04:17:22;1.20;;;0.70;;
72194;SDS011;60095;50.180;9.032;2022-10-16T04:19:49;1.50;;;0.75;;
72194;SDS011;60095;50.180;9.032;2022-10-16T04:22:15;1.77;;;0.52;;
72194;SDS011;60095;50.180;9.032;2022-10-16T04:24:42;1.10;;;0.60;;
72194;SDS011;60095;50.180;9.032;2022-10-16T04:27:08;0.57;;;0.40;;
72194;SDS011;60095;50.180;9.032;2022-10-16T04:29:34;0.80;;;0.60;;
72194;SDS011;60095;50.180;9.032;2022-10-16T04:32:01;0.80;;;0.57;;
72194;SDS011;60095;50.180;9.032;2022-10-16T04:34:27;1.75;;;1.10;;
72194;SDS011;60095;50.180;9.032;2022-10-16T04:36:54;1.83;;;1.38;;
72194;SDS011;60095;50.180;9.032;2022-10-16T04:39:21;1.23;;;0.60;;
72194;SDS011;60095;50.180;9.032;2022-10-16T04:41:47;2.88;;;1.38;;
72194;SDS011;60095;50.180;9.032;2022-10-16T04:44:13;2.83;;;1.77;;
72194;SDS011;60095;50.180;9.032;2022-10-16T04:46:40;1.05;;;0.60;;
72194;SDS011;60095;50.180;9.032;2022-10-16T04:49:06;15.07;;;1.33;;
72194;SDS011;60095;50.180;9.032;2022-10-16T04:51:32;1.00;;;0.63;;
72194;SDS011;60095;50.180;9.032;2022-10-16T04:54:00;1.65;;;1.30;;
72194;SDS011;60095;50.180;9.032;2022-10-16T04:56:26;3.95;;;1.45;;
72194;SDS011;60095;50.180;9.032;2022-10-16T04:58:53;1.25;;;0.57;;
72194;SDS011;60095;50.180;9.032;2022-10-16T05:01:19;0.50;;;0.40;;
72194;SDS011;60095;50.180;9.032;2022-10-16T05:03:45;2.35;;;2.00;;
72194;SDS011;60095;50.180;9.032;2022-10-16T05:06:12;2.00;;;1.73;;
72194;SDS011;60095;50.180;9.032;2022-10-16T05:08:38;1.10;;;0.82;;
72194;SDS011;60095;50.180;9.032;2022-10-16T05:11:06;2.47;;;0.93;;
72194;SDS011;60095;50.180;9.032;2022-10-16T05:13:32;1.70;;;0.70;;
72194;SDS011;60095;50.180;9.032;2022-10-16T05:15:58;1.20;;;0.98;;
72194;SDS011;60095;50.180;9.032;2022-10-16T05:18:24;3.05;;;1.73;;
72194;SDS011;60095;50.180;9.032;2022-10-16T05:20:51;9.38;;;1.10;;
72194;SDS011;60095;50.180;9.032;2022-10-16T05:23:17;2.05;;;1.30;;
72194;SDS011;60095;50.180;9.032;2022-10-16T05:25:43;1.63;;;1.38;;
72194;SDS011;60095;50.180;9.032;2022-10-16T05:28:18;1.70;;;1.20;;
72194;SDS011;60095;50.180;9.032;2022-10-16T05:30:45;1.77;;;1.50;;
72194;SDS011;60095;50.180;9.032;2022-10-16T05:33:11;1.95;;;1.25;;
72194;SDS011;60095;50.180;9.032;2022-10-16T05:35:38;7.13;;;1.15;;
72194;SDS011;60095;50.180;9.032;2022-10-16T05:38:04;3.42;;;1.25;;
72194;SDS011;60095;50.180;9.032;2022-10-16T05:40:30;4.50;;;1.92;;
72194;SDS011;60095;50.180;9.032;2022-10-16T05:42:57;1.63;;;1.13;;
72194;SDS011;60095;50.180;9.032;2022-10-16T05:45:24;2.60;;;1.73;;
72194;SDS011;60095;50.180;9.032;2022-10-16T05:47:51;2.63;;;1.88;;
72194;SDS011;60095;50.180;9.032;2022-10-16T05:50:17;5.40;;;3.42;;
72194;SDS011;60095;50.180;9.032;2022-10-16T05:52:43;1.98;;;1.65;;
72194;SDS011;60095;50.180;9.032;2022-10-16T05:55:10;1.55;;;1.17;;
72194;SDS011;60095;50.180;9.032;2022-10-16T05:57:36;1.42;;;1.17;;
72194;SDS011;60095;50.180;9.032;2022-10-16T06:00:02;2.90;;;1.88;;
72194;SDS011;60095;50.180;9.032;2022-10-16T06:02:30;1.10;;;0.82;;
72194;SDS011;60095;50.180;9.032;2022-10-16T06:04:56;3.15;;;1.80;;
72194;SDS011;60095;50.180;9.032;2022-10-16T06:07:23;1.42;;;1.13;;
72194;SDS011;60095;50.180;9.032;2022-10-16T06:09:50;2.30;;;1.85;;
72194;SDS011;60095;50.180;9.032;2022-10-16T06:12:16;1.73;;;1.63;;
72194;SDS011;60095;50.180;9.032;2022-10-16T06:14:42;1.83;;;1.73;;
72194;SDS011;60095;50.180;9.032;2022-10-16T06:17:09;2.35;;;2.00;;
72194;SDS011;60095;50.180;9.032;2022-10-16T06:19:36;8.15;;;1.67;;
72194;SDS011;60095;50.180;9.032;2022-10-16T06:22:03;1.45;;;1.30;;
72194;SDS011;60095;50.180;9.032;2022-10-16T06:24:29;2.30;;;1.80;;
72194;SDS011;60095;50.180;9.032;2022-10-16T06:26:55;11.90;;;2.45;;
72194;SDS011;60095;50.180;9.032;2022-10-16T06:29:21;2.40;;;1.73;;
72194;SDS011;60095;50.180;9.032;2022-10-16T06:31:48;1.90;;;1.75;;
72194;SDS011;60095;50.180;9.032;2022-10-16T06:34:14;6.55;;;2.33;;
72194;SDS011;60095;50.180;9.032;2022-10-16T06:36:42;2.90;;;1.88;;
72194;SDS011;60095;50.180;9.032;2022-10-16T06:39:08;1.75;;;1.65;;
72194;SDS011;60095;50.180;9.032;2022-10-16T06:41:34;2.90;;;2.00;;
72194;SDS011;60095;50.180;9.032;2022-10-16T06:44:01;1.83;;;1.30;;
72194;SDS011;60095;50.180;9.032;2022-10-16T06:46:27;4.05;;;3.65;;
72194;SDS011;60095;50.180;9.032;2022-10-16T06:48:54;3.15;;;2.45;;
72194;SDS011;60095;50.180;9.032;2022-10-16T06:51:20;3.53;;;3.22;;
72194;SDS011;60095;50.180;9.032;2022-10-16T06:53:48;3.47;;;3.10;;
72194;SDS011;60095;50.180;9.032;2022-10-16T06:56:16;2.75;;;2.38;;
72194;SDS011;60095;50.180;9.032;2022-10-16T06:58:42;2.60;;;2.40;;
72194;SDS011;60095;50.180;9.032;2022-10-16T07:01:10;4.22;;;3.80;;
72194;SDS011;60095;50.180;9.032;2022-10-16T07:03:36;3.58;;;2.60;;
72194;SDS011;60095;50.180;9.032;2022-10-16T07:06:03;3.53;;;2.90;;
72194;SDS011;60095;50.180;9.032;2022-10-16T07:08:30;3.83;;;2.47;;
72194;SDS011;60095;50.180;9.032;2022-10-16T07:11:01;2.28;;;2.03;;
72194;SDS011;60095;50.180;9.032;2022-10-16T07:13:28;3.33;;;3.03;;
72194;SDS011;60095;50.180;9.032;2022-10-16T07:15:54;3.78;;;3.33;;
72194;SDS011;60095;50.180;9.032;2022-10-16T07:18:21;4.00;;;3.35;;
72194;SDS011;60095;50.180;9.032;2022-10-16T07:20:51;2.70;;;2.38;;
72194;SDS011;60095;50.180;9.032;2022-10-16T07:23:17;4.18;;;3.40;;
72194;SDS011;60095;50.180;9.032;2022-10-16T07:25:43;2.40;;;2.22;;
72194;SDS011;60095;50.180;9.032;2022-10-16T07:28:11;1.98;;;1.80;;
72194;SDS011;60095;50.180;9.032;2022-10-16T07:30:37;3.42;;;2.70;;
72194;SDS011;60095;50.180;9.032;2022-10-16T07:33:04;2.60;;;2.40;;
72194;SDS011;60095;50.180;9.032;2022-10-16T07:35:30;3.60;;;2.08;;
72194;SDS011;60095;50.180;9.032;2022-10-16T07:37:56;3.17;;;2.25;;
72194;SDS011;60095;50.180;9.032;2022-10-16T07:40:22;3.50;;;2.25;;
72194;SDS011;60095;50.180;9.032;2022-10-16T07:42:49;1.33;;;1.15;;
72194;SDS011;60095;50.180;9.032;2022-10-16T07:45:16;4.43;;;1.83;;
72194;SDS011;60095;50.180;9.032;2022-10-16T07:47:43;1.50;;;1.40;;
72194;SDS011;60095;50.180;9.032;2022-10-16T07:50:09;2.53;;;1.67;;
72194;SDS011;60095;50.180;9.032;2022-10-16T07:52:35;1.67;;;1.13;;
72194;SDS011;60095;50.180;9.032;2022-10-16T07:55:02;1.17;;;1.02;;
72194;SDS011;60095;50.180;9.032;2022-10-16T07:57:28;1.17;;;0.98;;
72194;SDS011;60095;50.180;9.032;2022-10-16T07:59:54;1.95;;;1.05;;
72194;SDS011;60095;50.180;9.032;2022-10-16T08:02:22;1.48;;;0.73;;
72194;SDS011;60095;50.180;9.032;2022-10-16T08:04:48;7.28;;;0.60;;
72194;SDS011;60095;50.180;9.032;2022-10-16T08:07:15;2.00;;;1.63;;
72194;SDS011;60095;50.180;9.032;2022-10-16T08:09:41;1.05;;;0.70;;
72194;SDS011;60095;50.180;9.032;2022-10-16T08:12:07;1.02;;;0.90;;
72194;SDS011;60095;50.180;9.032;2022-10-16T08:14:35;3.78;;;1.92;;
72194;SDS011;60095;50.180;9.032;2022-10-16T08:17:02;1.33;;;1.17;;
72194;SDS011;60095;50.180;9.032;2022-10-16T08:19:30;0.95;;;0.85;;
72194;SDS011;60095;50.180;9.032;2022-10-16T08:21:59;1.35;;;1.15;;
72194;SDS011;60095;50.180;9.032;2022-10-16T08:24:25;2.33;;;1.83;;
72194;SDS011;60095;50.180;9.032;2022-10-16T08:26:53;14.63;;;2.53;;
72194;SDS011;60095;50.180;9.032;2022-10-16T08:29:19;1.38;;;1.08;;
72194;SDS011;60095;50.180;9.032;2022-10-16T08:31:45;6.78;;;4.88;;
72194;SDS011;60095;50.180;9.032;2022-10-16T08:34:11;3.22;;;1.45;;
72194;SDS011;60095;50.180;9.032;2022-10-16T08:36:39;11.85;;;1.70;;
72194;SDS011;60095;50.180;9.032;2022-10-16T08:39:05;3.22;;;2.40;;
72194;SDS011;60095;50.180;9.032;2022-10-16T08:47:13;2.70;;;1.70;;
72194;SDS011;60095;50.180;9.032;2022-10-16T08:49:45;1.60;;;0.90;;
72194;SDS011;60095;50.180;9.032;2022-10-16T08:52:17;3.47;;;1.63;;
72194;SDS011;60095;50.180;9.032;2022-10-16T08:54:44;2.92;;;1.75;;
72194;SDS011;60095;50.180;9.032;2022-10-16T08:57:13;2.00;;;1.85;;
72194;SDS011;60095;50.180;9.032;2022-10-16T08:59:41;3.83;;;1.60;;
72194;SDS011;60095;50.180;9.032;2022-10-16T09:02:16;2.35;;;1.52;;
72194;SDS011;60095;50.180;9.032;2022-10-16T09:04:52;6.80;;;2.75;;
72194;SDS011;60095;50.180;9.032;2022-10-16T09:07:23;1.13;;;0.88;;
72194;SDS011;60095;50.180;9.032;2022-10-16T09:09:55;2.72;;;1.73;;
72194;SDS011;60095;50.180;9.032;2022-10-16T09:12:25;1.40;;;1.30;;
72194;SDS011;60095;50.180;9.032;2022-10-16T09:14:57;1.63;;;1.35;;
72194;SDS011;60095;50.180;9.032;2022-10-16T09:17:29;4.28;;;3.17;;
72194;SDS011;60095;50.180;9.032;2022-10-16T09:19:57;2.30;;;1.75;;
72194;SDS011;60095;50.180;9.032;2022-10-16T09:22:30;4.35;;;3.15;;
72194;SDS011;60095;50.180;9.032;2022-10-16T09:24:57;5.00;;;4.55;;
72194;SDS011;60095;50.180;9.032;2022-10-16T09:27:25;9.18;;;7.22;;
72194;SDS011;60095;50.180;9.032;2022-10-16T09:29:52;6.35;;;5.35;;
72194;SDS011;60095;50.180;9.032;2022-10-16T09:32:19;6.38;;;4.80;;
72194;SDS011;60095;50.180;9.032;2022-10-16T09:34:47;6.88;;;4.15;;
72194;SDS011;60095;50.180;9.032;2022-10-16T09:37:14;12.18;;;4.28;;
72194;SDS011;60095;50.180;9.032;2022-10-16T09:39:48;2.90;;;2.35;;
72194;SDS011;60095;50.180;9.032;2022-10-16T09:42:15;2.75;;;2.55;;
72194;SDS011;60095;50.180;9.032;2022-10-16T09:44:42;2.92;;;2.63;;
72194;SDS011;60095;50.180;9.032;2022-10-16T09:47:13;2.75;;;2.55;;
72194;SDS011;60095;50.180;9.032;2022-10-16T09:49:49;2.42;;;1.98;;
72194;SDS011;60095;50.180;9.032;2022-10-16T09:52:16;3.25;;;2.90;;
72194;SDS011;60095;50.180;9.032;2022-10-16T09:54:52;3.28;;;2.97;;
72194;SDS011;60095;50.180;9.032;2022-10-16T09:57:19;8.55;;;3.45;;
72194;SDS011;60095;50.180;9.032;2022-10-16T09:59:46;4.00;;;2.50;;
72194;SDS011;60095;50.180;9.032;2022-10-16T10:02:13;7.72;;;2.33;;
72194;SDS011;60095;50.180;9.032;2022-10-16T10:04:40;1.45;;;1.35;;
72194;SDS011;60095;50.180;9.032;2022-10-16T10:07:14;1.88;;;1.75;;
72194;SDS011;60095;50.180;9.032;2022-10-16T10:09:43;5.25;;;2.88;;
72194;SDS011;60095;50.180;9.032;2022-10-16T10:12:17;2.40;;;2.20;;
72194;SDS011;60095;50.180;9.032;2022-10-16T10:14:45;4.15;;;1.83;;
72194;SDS011;60095;50.180;9.032;2022-10-16T10:17:14;2.72;;;2.53;;
72194;SDS011;60095;50.180;9.032;2022-10-16T10:19:42;3.22;;;2.92;;
72194;SDS011;60095;50.180;9.032;2022-10-16T10:22:16;3.92;;;2.67;;
72194;SDS011;60095;50.180;9.032;2022-10-16T10:24:43;7.22;;;2.40;;
72194;SDS011;60095;50.180;9.032;2022-10-16T10:27:10;3.67;;;3.00;;
72194;SDS011;60095;50.180;9.032;2022-10-16T10:29:44;3.50;;;3.20;;
72194;SDS011;60095;50.180;9.032;2022-10-16T10:32:15;5.07;;;3.22;;
72194;SDS011;60095;50.180;9.032;2022-10-16T10:34:47;4.90;;;3.25;;
72194;SDS011;60095;50.180;9.032;2022-10-16T10:37:21;1.92;;;1.48;;
72194;SDS011;60095;50.180;9.032;2022-10-16T10:39:53;2.53;;;2.33;;
72194;SDS011;60095;50.180;9.032;2022-10-16T10:42:22;4.70;;;3.50;;
72194;SDS011;60095;50.180;9.032;2022-10-16T10:47:37;3.58;;;2.50;;
72194;SDS011;60095;50.180;9.032;2022-10-16T10:50:07;5.77;;;3.50;;
72194;SDS011;60095;50.180;9.032;2022-10-16T10:52:41;2.50;;;2.30;;
72194;SDS011;60095;50.180;9.032;2022-10-16T10:55:10;2.85;;;2.40;;
72194;SDS011;60095;50.180;9.032;2022-10-16T10:57:41;2.08;;;1.80;;
72194;SDS011;60095;50.180;9.032;2022-10-16T11:00:17;2.03;;;1.83;;
72194;SDS011;60095;50.180;9.032;2022-10-16T11:02:48;2.42;;;2.22;;
72194;SDS011;60095;50.180;9.032;2022-10-16T11:05:23;2.35;;;1.88;;
72194;SDS011;60095;50.180;9.032;2022-10-16T11:07:54;4.75;;;2.83;;
72194;SDS011;60095;50.180;9.032;2022-10-16T11:10:24;4.15;;;2.55;;
72194;SDS011;60095;50.180;9.032;2022-10-16T11:12:52;1.83;;;1.70;;
72194;SDS011;60095;50.180;9.032;2022-10-16T11:15:21;9.07;;;2.70;;
72194;SDS011;60095;50.180;9.032;2022-10-16T11:17:52;3.17;;;2.10;;
72194;SDS011;60095;50.180;9.032;2022-10-16T11:20:20;2.22;;;1.92;;
72194;SDS011;60095;50.180;9.032;2022-10-16T11:22:50;2.33;;;2.13;;
72194;SDS011;60095;50.180;9.032;2022-10-16T11:25:18;2.05;;;1.85;;
72194;SDS011;60095;50.180;9.032;2022-10-16T11:27:47;1.63;;;1.45;;
72194;SDS011;60095;50.180;9.032;2022-10-16T11:30:18;2.65;;;2.08;;
72194;SDS011;60095;50.180;9.032;2022-10-16T11:32:50;5.78;;;3.97;;
72194;SDS011;60095;50.180;9.032;2022-10-16T11:35:21;2.58;;;2.17;;
72194;SDS011;60095;50.180;9.032;2022-10-16T11:37:49;6.68;;;3.38;;
72194;SDS011;60095;50.180;9.032;2022-10-16T11:40:19;4.00;;;3.10;;
72194;SDS011;60095;50.180;9.032;2022-10-16T11:42:46;5.03;;;1.98;;
72194;SDS011;60095;50.180;9.032;2022-10-16T11:45:17;2.45;;;2.03;;
72194;SDS011;60095;50.180;9.032;2022-10-16T11:47:51;3.22;;;2.92;;
72194;SDS011;60095;50.180;9.032;2022-10-16T11:50:22;5.88;;;2.92;;
72194;SDS011;60095;50.180;9.032;2022-10-16T11:52:51;3.80;;;2.92;;
72194;SDS011;60095;50.180;9.032;2022-10-16T11:55:20;4.72;;;2.72;;
72194;SDS011;60095;50.180;9.032;2022-10-16T11:57:47;2.13;;;1.92;;
72194;SDS011;60095;50.180;9.032;2022-10-16T12:00:18;11.45;;;3.47;;
72194;SDS011;60095;50.180;9.032;2022-10-16T12:02:49;2.60;;;2.28;;
72194;SDS011;60095;50.180;9.032;2022-10-16T12:05:23;2.70;;;1.77;;
72194;SDS011;60095;50.180;9.032;2022-10-16T12:07:52;4.70;;;2.58;;
72194;SDS011;60095;50.180;9.032;2022-10-16T12:10:22;2.78;;;2.55;;
72194;SDS011;60095;50.180;9.032;2022-10-16T12:12:48;6.28;;;2.75;;
72194;SDS011;60095;50.180;9.032;2022-10-16T12:15:19;2.63;;;2.28;;
72194;SDS011;60095;50.180;9.032;2022-10-16T12:17:46;1.55;;;1.38;;
72194;SDS011;60095;50.180;9.032;2022-10-16T12:20:18;3.08;;;1.85;;
72194;SDS011;60095;50.180;9.032;2022-10-16T12:22:49;1.88;;;1.70;;
72194;SDS011;60095;50.180;9.032;2022-10-16T12:25:23;7.15;;;1.67;;
72194;SDS011;60095;50.180;9.032;2022-10-16T12:27:56;3.30;;;1.90;;
72194;SDS011;60095;50.180;9.032;2022-10-16T12:30:23;1.67;;;1.40;;
72194;SDS011;60095;50.180;9.032;2022-10-16T12:32:53;3.25;;;1.00;;
72194;SDS011;60095;50.180;9.032;2022-10-16T12:35:21;2.20;;;1.60;;
72194;SDS011;60095;50.180;9.032;2022-10-16T12:37:49;2.45;;;1.38;;
72194;SDS011;60095;50.180;9.032;2022-10-16T12:40:22;1.70;;;1.20;;
72194;SDS011;60095;50.180;9.032;2022-10-16T12:42:50;1.45;;;1.05;;
72194;SDS011;60095;50.180;9.032;2022-10-16T12:45:23;1.77;;;1.35;;
72194;SDS011;60095;50.180;9.032;2022-10-16T12:47:51;1.25;;;0.80;;
72194;SDS011;60095;50.180;9.032;2022-10-16T12:53:17;1.30;;;0.98;;
72194;SDS011;60095;50.180;9.032;2022-10-16T12:55:45;1.35;;;1.25;;
72194;SDS011;60095;50.180;9.032;2022-10-16T12:58:24;2.33;;;1.10;;
72194;SDS011;60095;50.180;9.032;2022-10-16T13:00:54;9.23;;;6.18;;
72194;SDS011;60095;50.180;9.032;2022-10-16T13:03:39;13.48;;;12.10;;
72194;SDS011;60095;50.180;9.032;2022-10-16T13:06:13;27.88;;;12.68;;
72194;SDS011;60095;50.180;9.032;2022-10-16T13:08:47;4.68;;;1.92;;
72194;SDS011;60095;50.180;9.032;2022-10-16T13:11:17;2.47;;;1.30;;
72194;SDS011;60095;50.180;9.032;2022-10-16T13:13:59;0.70;;;0.68;;
72194;SDS011;60095;50.180;9.032;2022-10-16T13:16:30;2.47;;;0.68;;
72194;SDS011;60095;50.180;9.032;2022-10-16T13:19:01;0.28;;;0.20;;
72194;SDS011;60095;50.180;9.032;2022-10-16T13:21:33;0.77;;;0.57;;
72194;SDS011;60095;50.180;9.032;2022-10-16T13:24:05;0.45;;;0.30;;
72194;SDS011;60095;50.180;9.032;2022-10-16T13:26:39;1.45;;;0.93;;
72194;SDS011;60095;50.180;9.032;2022-10-16T13:29:07;0.33;;;0.33;;
72194;SDS011;60095;50.180;9.032;2022-10-16T13:31:33;0.65;;;0.40;;
72194;SDS011;60095;50.180;9.032;2022-10-16T13:34:00;5.30;;;1.00;;
72194;SDS011;60095;50.180;9.032;2022-10-16T13:36:27;0.88;;;0.60;;
72194;SDS011;60095;50.180;9.032;2022-10-16T13:39:12;0.40;;;0.40;;
72194;SDS011;60095;50.180;9.032;2022-10-16T13:41:38;1.15;;;0.50;;
72194;SDS011;60095;50.180;9.032;2022-10-16T13:44:07;1.17;;;0.60;;
72194;SDS011;60095;50.180;9.032;2022-10-16T13:46:37;0.95;;;0.65;;
72194;SDS011;60095;50.180;9.032;2022-10-16T13:49:04;0.55;;;0.47;;
72194;SDS011;60095;50.180;9.032;2022-10-16T13:51:30;0.40;;;0.40;;
72194;SDS011;60095;50.180;9.032;2022-10-16T13:53:57;1.75;;;1.13;;
72194;SDS011;60095;50.180;9.032;2022-10-16T13:56:26;1.25;;;0.82;;
72194;SDS011;60095;50.180;9.032;2022-10-16T13:59:00;2.80;;;1.17;;
72194;SDS011;60095;50.180;9.032;2022-10-16T14:01:27;1.77;;;1.10;;
72194;SDS011;60095;50.180;9.032;2022-10-16T14:03:59;0.68;;;0.20;;
72194;SDS011;60095;50.180;9.032;2022-10-16T14:06:27;3.90;;;1.10;;
72194;SDS011;60095;50.180;9.032;2022-10-16T14:08:54;2.10;;;0.73;;
72194;SDS011;60095;50.180;9.032;2022-10-16T14:11:22;0.52;;;0.40;;
72194;SDS011;60095;50.180;9.032;2022-10-16T14:13:50;1.02;;;0.90;;
72194;SDS011;60095;50.180;9.032;2022-10-16T14:16:17;0.65;;;0.47;;
72194;SDS011;60095;50.180;9.032;2022-10-16T14:18:45;1.02;;;0.90;;
72194;SDS011;60095;50.180;9.032;2022-10-16T14:21:12;0.63;;;0.45;;
72194;SDS011;60095;50.180;9.032;2022-10-16T14:23:40;0.77;;;0.50;;
72194;SDS011;60095;50.180;9.032;2022-10-16T14:26:12;0.68;;;0.40;;
72194;SDS011;60095;50.180;9.032;2022-10-16T14:28:39;1.42;;;1.00;;
72194;SDS011;60095;50.180;9.032;2022-10-16T14:31:19;1.52;;;1.08;;
72194;SDS011;60095;50.180;9.032;2022-10-16T14:33:49;0.57;;;0.47;;
72194;SDS011;60095;50.180;9.032;2022-10-16T14:36:15;2.28;;;1.45;;
72194;SDS011;60095;50.180;9.032;2022-10-16T14:38:54;0.88;;;0.75;;
72194;SDS011;60095;50.180;9.032;2022-10-16T14:41:22;1.60;;;0.98;;
72194;SDS011;60095;50.180;9.032;2022-10-16T14:43:49;8.50;;;1.08;;
72194;SDS011;60095;50.180;9.032;2022-10-16T14:46:20;1.20;;;1.00;;
72194;SDS011;60095;50.180;9.032;2022-10-16T14:48:51;0.75;;;0.52;;
72194;SDS011;60095;50.180;9.032;2022-10-16T14:51:20;1.35;;;1.10;;
72194;SDS011;60095;50.180;9.032;2022-10-16T14:53:47;1.65;;;1.40;;
72194;SDS011;60095;50.180;9.032;2022-10-16T14:56:14;1.35;;;0.85;;
72194;SDS011;60095;50.180;9.032;2022-10-16T14:58:41;1.00;;;0.70;;
72194;SDS011;60095;50.180;9.032;2022-10-16T15:01:09;1.67;;;1.27;;
72194;SDS011;60095;50.180;9.032;2022-10-16T15:03:37;1.90;;;1.60;;
72194;SDS011;60095;50.180;9.032;2022-10-16T15:06:07;1.55;;;1.13;;